createdAt,value
2018-07-01T00:02:03.354Z,63.00
2018-07-01T00:04:32.982Z,63.60
2018-07-01T00:07:02.661Z,64.10
2018-07-01T00:09:32.299Z,63.80
2018-07-01T00:12:01.950Z,63.30
2018-07-01T00:14:47.874Z,63.80
2018-07-01T00:17:17.565Z,64.40
2018-07-01T00:19:47.162Z,64.50
2018-07-01T00:22:16.846Z,64.60
2018-07-01T00:24:46.429Z,64.80
2018-07-01T00:27:16.031Z,64.60
2018-07-01T00:29:45.915Z,64.60
2018-07-01T00:32:15.618Z,64.20
2018-07-01T00:34:45.266Z,63.90
2018-07-01T00:37:14.898Z,64.60
2018-07-01T00:39:44.571Z,64.90
2018-07-01T00:42:14.199Z,64.80
2018-07-01T00:44:43.820Z,64.60
2018-07-01T00:47:13.462Z,64.40
2018-07-01T00:49:43.082Z,64.10
2018-07-01T00:52:12.681Z,64.10
2018-07-01T00:54:42.322Z,64.10
2018-07-01T00:57:11.982Z,64.80
2018-07-01T00:59:41.586Z,64.30
2018-07-01T01:02:11.222Z,64.90
2018-07-01T01:04:40.874Z,64.90
2018-07-01T01:07:10.478Z,65.00
2018-07-01T01:09:40.105Z,65.50
2018-07-01T01:12:09.706Z,65.40
2018-07-01T01:14:39.374Z,65.50
2018-07-01T01:17:09.011Z,65.30
2018-07-01T01:19:38.609Z,66.30
2018-07-01T01:22:08.314Z,66.60
2018-07-01T01:24:37.942Z,66.60
2018-07-01T01:27:07.595Z,66.70
2018-07-01T01:29:37.225Z,66.70
2018-07-01T01:32:06.929Z,67.00
2018-07-01T01:34:36.597Z,67.40
2018-07-01T01:37:06.295Z,67.10
2018-07-01T01:39:38.685Z,66.90
2018-07-01T01:42:12.490Z,67.30
2018-07-01T01:44:46.572Z,67.10
2018-07-01T01:47:23.284Z,67.20
2018-07-01T01:49:59.310Z,68.00
2018-07-01T01:52:41.634Z,67.50
2018-07-01T01:55:16.055Z,67.20
2018-07-01T01:58:06.978Z,67.80
2018-07-01T02:00:48.597Z,67.60
2018-07-01T02:03:23.440Z,67.90
2018-07-01T02:05:57.617Z,67.80
2018-07-01T02:08:32.141Z,68.10
2018-07-01T02:11:01.875Z,68.20
2018-07-01T02:13:32.609Z,68.50
2018-07-01T02:16:05.742Z,68.60
2018-07-01T02:18:35.375Z,68.60
2018-07-01T02:21:05.166Z,68.90
2018-07-01T02:23:38.286Z,69.20
2018-07-01T02:26:08.023Z,70.00
2018-07-01T02:28:37.799Z,69.80
2018-07-01T02:31:07.694Z,69.30
2018-07-01T02:33:37.399Z,69.30
2018-07-01T02:36:07.067Z,69.50
2018-07-01T02:38:36.641Z,69.70
2018-07-01T02:41:06.292Z,69.90
2018-07-01T02:43:35.912Z,69.70
2018-07-01T02:46:05.595Z,70.30
2018-07-01T02:48:35.210Z,70.50
2018-07-01T02:51:04.837Z,70.40
2018-07-01T02:53:34.513Z,70.70
2018-07-01T02:56:04.406Z,70.80
2018-07-01T02:58:34.174Z,70.70
2018-07-01T03:01:03.789Z,70.60
2018-07-01T03:03:33.396Z,70.70
2018-07-01T03:06:02.963Z,71.10
2018-07-01T03:08:32.594Z,71.30
2018-07-01T03:11:02.258Z,71.50
2018-07-01T03:13:31.890Z,71.30
2018-07-01T03:16:01.518Z,71.60
2018-07-01T03:18:31.269Z,71.80
2018-07-01T03:21:00.845Z,71.30
2018-07-01T03:23:30.434Z,71.50
2018-07-01T03:26:00.034Z,72.50
2018-07-01T03:28:29.650Z,72.40
2018-07-01T03:30:59.325Z,73.10
2018-07-01T03:33:28.952Z,72.90
2018-07-01T03:35:58.590Z,72.40
2018-07-01T03:38:28.242Z,73.30
2018-07-01T03:40:57.874Z,73.20
2018-07-01T03:43:27.497Z,72.90
2018-07-01T03:45:57.114Z,72.80
2018-07-01T03:48:26.749Z,73.60
2018-07-01T03:50:56.365Z,73.40
2018-07-01T03:53:26.042Z,74.10
2018-07-01T03:55:55.637Z,74.30
2018-07-01T03:58:25.286Z,75.20
2018-07-01T04:00:54.899Z,75.60
2018-07-01T04:03:24.523Z,76.20
2018-07-01T04:05:54.165Z,76.30
2018-07-01T04:08:23.810Z,77.40
2018-07-01T04:10:53.416Z,78.00
2018-07-01T04:13:23.067Z,78.90
2018-07-01T04:15:52.722Z,79.20
2018-07-01T04:18:22.314Z,80.00
2018-07-01T04:20:51.941Z,79.60
2018-07-01T04:23:21.553Z,78.80
2018-07-01T04:25:51.212Z,79.10
2018-07-01T04:28:20.797Z,78.40
2018-07-01T04:30:50.456Z,79.10
2018-07-01T04:33:20.090Z,78.60
2018-07-01T04:35:49.732Z,78.60
2018-07-01T04:38:19.360Z,78.60
2018-07-01T04:40:49.001Z,78.40
2018-07-01T04:43:18.602Z,77.70
2018-07-01T04:45:48.249Z,78.00
2018-07-01T04:48:17.902Z,78.20
2018-07-01T04:50:47.518Z,78.60
2018-07-01T04:53:17.160Z,78.60
2018-07-01T04:55:46.769Z,78.00
2018-07-01T04:58:16.405Z,78.90
2018-07-01T05:00:46.054Z,78.30
2018-07-01T05:03:15.677Z,78.40
2018-07-01T05:05:45.354Z,78.20
2018-07-01T05:08:14.995Z,78.60
2018-07-01T05:10:44.709Z,77.80
2018-07-01T05:13:14.351Z,77.10
2018-07-01T05:15:44.145Z,77.20
2018-07-01T05:18:13.786Z,77.20
2018-07-01T05:20:43.401Z,77.10
2018-07-01T05:23:13.002Z,77.00
2018-07-01T05:25:42.607Z,76.90
2018-07-01T05:28:12.273Z,77.50
2018-07-01T05:30:41.892Z,76.80
2018-07-01T05:33:11.482Z,76.80
2018-07-01T05:35:41.101Z,76.90
2018-07-01T05:38:10.674Z,77.20
2018-07-01T05:40:40.306Z,76.30
2018-07-01T05:43:10.044Z,75.90
2018-07-01T05:45:39.682Z,76.70
2018-07-01T05:48:09.298Z,76.00
2018-07-01T05:50:38.938Z,75.60
2018-07-01T05:53:08.578Z,76.30
2018-07-01T05:55:38.221Z,75.90
2018-07-01T05:58:07.833Z,76.20
2018-07-01T06:00:37.575Z,75.90
2018-07-01T06:03:07.250Z,76.40
2018-07-01T06:05:36.906Z,75.20
2018-07-01T06:08:06.678Z,74.80
2018-07-01T06:10:36.333Z,75.60
2018-07-01T06:13:06.018Z,75.80
2018-07-01T06:15:35.714Z,75.40
2018-07-01T06:18:05.429Z,75.60
2018-07-01T06:20:35.046Z,75.10
2018-07-01T06:23:04.687Z,75.30
2018-07-01T06:25:34.358Z,74.90
2018-07-01T06:28:03.986Z,74.10
2018-07-01T06:30:33.639Z,73.30
2018-07-01T06:33:03.255Z,73.50
2018-07-01T06:38:02.202Z,73.40
2018-07-01T06:40:31.834Z,73.30
2018-07-01T06:43:01.504Z,73.30
2018-07-01T06:45:31.223Z,73.50
2018-07-01T06:48:00.890Z,73.30
2018-07-01T06:50:30.481Z,72.80
2018-07-01T06:53:00.126Z,72.70
2018-07-01T06:55:29.761Z,72.60
2018-07-01T06:57:59.389Z,71.00
2018-07-01T07:00:29.012Z,70.80
2018-07-01T07:02:58.756Z,70.50
2018-07-01T07:05:28.377Z,71.60
2018-07-01T07:07:58.033Z,71.70
2018-07-01T07:10:27.681Z,70.40
2018-07-01T07:12:57.333Z,69.80
2018-07-01T07:15:26.998Z,69.10
2018-07-01T07:17:56.686Z,69.50
2018-07-01T07:20:26.413Z,67.40
2018-07-01T07:22:56.395Z,66.20
2018-07-01T07:25:26.023Z,67.70
2018-07-01T07:27:55.597Z,66.10
2018-07-01T07:30:25.241Z,65.00
2018-07-01T07:32:54.860Z,64.20
2018-07-01T07:35:24.509Z,64.50
2018-07-01T07:37:54.458Z,64.30
2018-07-01T07:40:24.134Z,62.70
2018-07-01T07:42:53.798Z,61.60
2018-07-01T07:45:42.955Z,62.30
2018-07-01T07:57:43.890Z,60.70
2018-07-01T08:00:15.558Z,61.40
2018-07-01T08:02:45.563Z,60.00
2018-07-01T08:05:15.332Z,60.40
2018-07-01T08:07:45.107Z,59.10
2018-07-01T08:10:15.046Z,60.10
2018-07-01T08:15:45.435Z,60.10
2018-07-01T08:18:15.426Z,59.20
2018-07-01T08:20:45.197Z,59.00
2018-07-01T08:23:15.041Z,61.20
2018-07-01T08:38:04.816Z,58.10
2018-07-01T08:40:41.804Z,57.40
2018-07-01T08:43:15.560Z,57.60
2018-07-01T08:48:45.235Z,56.80
2018-07-01T08:51:40.348Z,58.20
2018-07-01T08:54:11.817Z,56.90
2018-07-01T08:59:14.719Z,53.80
2018-07-01T09:04:45.765Z,54.70
2018-07-01T09:07:36.233Z,54.90
2018-07-01T09:10:12.315Z,54.80
2018-07-01T09:15:36.670Z,53.40
2018-07-01T09:18:12.323Z,53.40
2018-07-01T09:20:47.998Z,54.40
2018-07-01T09:23:28.292Z,53.10
2018-07-01T09:26:05.418Z,53.40
2018-07-01T09:28:42.778Z,52.60
2018-07-01T09:36:40.406Z,51.20
2018-07-01T09:39:28.660Z,51.40
2018-07-01T09:42:16.090Z,51.90
2018-07-01T09:44:48.500Z,53.00
2018-07-01T09:47:18.876Z,53.10
2018-07-01T09:51:08.379Z,51.40
2018-07-01T09:53:49.075Z,52.30
2018-07-01T09:56:33.779Z,52.90
2018-07-01T09:59:03.916Z,51.00
2018-07-01T10:01:34.706Z,51.40
2018-07-01T10:04:04.581Z,52.00
2018-07-01T10:06:34.577Z,50.80
2018-07-01T10:25:32.065Z,50.60
2018-07-01T10:28:06.823Z,50.50
2018-07-01T10:36:24.858Z,50.20
2018-07-01T10:39:03.015Z,49.20
2018-07-01T10:41:53.345Z,49.50
2018-07-01T10:44:30.568Z,49.50
2018-07-01T10:47:32.491Z,49.40
2018-07-01T10:50:04.285Z,49.40
2018-07-01T10:52:34.343Z,49.90
2018-07-01T11:14:02.796Z,50.50
2018-07-01T11:27:03.134Z,49.40
2018-07-01T11:29:34.163Z,50.80
2018-07-01T11:32:06.052Z,47.60
2018-07-01T11:34:36.819Z,46.80
2018-07-01T11:37:06.903Z,49.20
2018-07-01T11:39:37.658Z,47.90
2018-07-01T11:42:07.755Z,47.20
2018-07-01T11:54:55.846Z,48.70
2018-07-01T12:00:41.587Z,48.80
2018-07-01T12:03:11.435Z,49.70
2018-07-01T12:05:41.511Z,48.90
2018-07-01T12:11:28.084Z,49.90
2018-07-01T12:14:04.095Z,49.30
2018-07-01T12:16:39.251Z,50.60
2018-07-01T12:19:37.297Z,50.80
2018-07-01T12:25:17.865Z,49.70
2018-07-01T12:32:38.123Z,49.40
2018-07-01T12:38:30.829Z,49.80
2018-07-01T12:44:19.804Z,48.20
2018-07-01T13:02:57.072Z,47.80
2018-07-01T13:21:28.820Z,47.70
2018-07-01T13:24:26.401Z,47.50
2018-07-01T13:27:04.535Z,47.60
2018-07-01T13:30:26.169Z,47.20
2018-07-01T13:33:16.345Z,47.50
2018-07-01T13:39:25.065Z,47.20
2018-07-01T13:50:28.622Z,46.50
2018-07-01T14:20:40.926Z,46.20
2018-07-01T14:23:24.624Z,46.60
2018-07-01T14:25:54.447Z,46.70
2018-07-01T14:33:21.584Z,46.20
2018-07-01T14:35:54.647Z,46.20
2018-07-01T14:38:25.121Z,47.20
2018-07-01T14:46:16.113Z,46.30
2018-07-01T14:49:17.605Z,46.70
2018-07-01T15:00:16.284Z,45.10
2018-07-01T15:03:15.411Z,45.80
2018-07-01T15:29:46.028Z,45.20
2018-07-01T15:32:18.361Z,45.10
2018-07-01T15:37:29.567Z,44.90
2018-07-01T15:40:20.155Z,45.70
2018-07-01T15:44:05.022Z,44.90
2018-07-01T15:47:12.528Z,44.40
2018-07-01T15:49:44.009Z,45.50
2018-07-01T15:52:14.275Z,45.40
2018-07-01T15:54:48.200Z,44.60
2018-07-01T16:00:14.040Z,45.40
2018-07-01T16:02:44.133Z,43.90
2018-07-01T16:05:16.171Z,44.10
2018-07-01T16:07:46.898Z,42.70
2018-07-01T16:10:43.339Z,43.40
2018-07-01T16:13:14.971Z,43.70
2018-07-01T16:16:07.567Z,43.60
2018-07-01T16:18:43.951Z,44.20
2018-07-01T16:21:17.511Z,44.30
2018-07-01T16:23:48.576Z,44.80
2018-07-01T16:29:02.408Z,44.60
2018-07-01T16:31:33.310Z,43.30
2018-07-01T16:34:05.142Z,44.20
2018-07-01T16:36:57.624Z,44.10
2018-07-01T16:39:30.712Z,42.90
2018-07-01T16:42:02.671Z,43.10
2018-07-01T16:44:44.579Z,42.80
2018-07-01T16:47:17.807Z,43.20
2018-07-01T16:49:48.005Z,43.30
2018-07-01T16:52:18.289Z,43.00
2018-07-01T16:54:48.452Z,42.10
2018-07-01T16:57:18.500Z,42.00
2018-07-01T16:59:51.047Z,42.00
2018-07-01T17:02:32.187Z,42.60
2018-07-01T17:05:02.647Z,42.50
2018-07-01T17:07:32.836Z,42.10
2018-07-01T17:10:15.025Z,42.50
2018-07-01T17:12:45.886Z,42.30
2018-07-01T17:15:33.648Z,42.10
2018-07-01T17:18:18.035Z,43.30
2018-07-01T17:21:14.371Z,41.90
2018-07-01T17:23:52.284Z,42.50
2018-07-01T17:26:22.672Z,42.30
2018-07-01T17:28:53.244Z,43.60
2018-07-01T17:31:29.946Z,44.00
2018-07-01T17:34:00.473Z,44.10
2018-07-01T17:36:30.693Z,45.40
2018-07-01T17:39:02.415Z,45.50
2018-07-01T17:41:44.786Z,45.80
2018-07-01T17:44:15.653Z,44.60
2018-07-01T17:46:49.469Z,45.60
2018-07-01T17:49:21.164Z,45.80
2018-07-01T17:51:51.500Z,45.40
2018-07-01T17:54:23.074Z,46.50
2018-07-01T17:56:53.167Z,46.60
2018-07-01T17:59:23.102Z,46.80
2018-07-01T18:01:52.976Z,46.20
2018-07-01T18:04:24.136Z,46.80
2018-07-01T18:06:54.361Z,44.80
2018-07-01T18:09:24.340Z,44.30
2018-07-01T18:12:00.072Z,45.00
2018-07-01T18:14:30.772Z,44.60
2018-07-01T18:17:00.698Z,45.00
2018-07-01T18:19:34.684Z,45.50
2018-07-01T18:22:21.724Z,45.80
2018-07-01T18:24:53.940Z,45.70
2018-07-01T18:27:14.615Z,45.70
2018-07-01T18:29:54.796Z,46.60
2018-07-01T18:32:29.665Z,47.40
2018-07-01T18:34:59.714Z,47.50
2018-07-01T18:37:29.659Z,48.20
2018-07-01T18:39:59.849Z,47.70
2018-07-01T18:42:32.541Z,47.90
2018-07-01T18:45:02.343Z,48.20
2018-07-01T18:47:32.300Z,49.20
2018-07-01T18:50:04.366Z,48.10
2018-07-01T18:52:35.688Z,48.70
2018-07-01T18:55:05.704Z,49.00
2018-07-01T18:57:36.253Z,48.80
2018-07-01T19:00:12.492Z,48.90
2018-07-01T19:02:43.971Z,49.00
2018-07-01T19:05:14.145Z,48.60
2018-07-01T19:07:44.702Z,49.40
2018-07-01T19:10:14.865Z,49.00
2018-07-01T19:12:45.678Z,49.60
2018-07-01T19:15:16.825Z,49.20
2018-07-01T19:17:47.100Z,49.80
2018-07-01T19:20:17.107Z,49.00
2018-07-01T19:22:47.368Z,50.00
2018-07-01T19:25:25.091Z,49.00
2018-07-01T19:27:58.339Z,49.10
2018-07-01T19:34:59.799Z,49.50
2018-07-01T19:37:29.793Z,49.60
2018-07-01T19:40:00.278Z,50.00
2018-07-01T19:42:42.299Z,49.50
2018-07-01T19:48:40.202Z,49.70
2018-07-01T19:51:12.756Z,50.80
2018-07-01T19:59:57.682Z,50.50
2018-07-01T20:05:37.000Z,51.50
2018-07-01T20:08:08.294Z,51.90
2018-07-01T20:10:39.591Z,51.70
2018-07-01T20:13:13.066Z,52.30
2018-07-01T20:18:47.723Z,52.80
2018-07-01T20:21:17.903Z,52.70
2018-07-01T20:26:43.727Z,53.40
2018-07-01T20:29:18.807Z,52.80
2018-07-01T20:31:49.057Z,53.80
2018-07-01T20:34:32.807Z,54.20
2018-07-01T20:37:03.250Z,54.60
2018-07-01T20:39:33.391Z,53.40
2018-07-01T20:42:14.509Z,53.70
2018-07-01T20:44:52.314Z,54.60
2018-07-01T20:47:34.428Z,55.50
2018-07-01T20:50:52.057Z,55.30
2018-07-01T20:53:26.181Z,54.80
2018-07-01T20:55:57.646Z,55.60
2018-07-01T20:58:36.909Z,55.70
2018-07-01T21:01:08.760Z,56.00
2018-07-01T21:03:38.678Z,55.40
2018-07-01T21:06:08.796Z,56.10
2018-07-01T21:08:41.033Z,55.90
2018-07-01T21:11:14.713Z,56.40
2018-07-01T21:13:45.995Z,56.30
2018-07-01T21:16:15.931Z,56.70
2018-07-01T21:18:46.112Z,57.00
2018-07-01T21:21:16.067Z,57.00
2018-07-01T21:23:46.010Z,57.10
2018-07-01T21:26:16.013Z,57.90
2018-07-01T21:28:46.029Z,57.10
2018-07-01T21:31:16.535Z,56.40
2018-07-01T21:33:49.917Z,57.60
2018-07-01T21:36:25.210Z,58.10
2018-07-01T21:38:59.231Z,58.90
2018-07-01T21:41:29.738Z,59.00
2018-07-01T21:44:14.480Z,59.70
2018-07-01T21:46:44.350Z,60.10
2018-07-01T21:49:14.254Z,59.80
2018-07-01T21:51:47.841Z,60.50
2018-07-01T22:09:19.186Z,59.10
2018-07-01T22:15:15.669Z,60.40
2018-07-01T22:47:43.713Z,61.50
2018-07-01T22:50:37.181Z,61.80
2018-07-01T22:53:28.233Z,61.30
2018-07-01T22:55:59.634Z,61.50
2018-07-01T22:58:31.055Z,61.20
2018-07-01T23:01:13.401Z,61.50
2018-07-01T23:03:56.607Z,61.50
2018-07-01T23:17:40.258Z,61.20
2018-07-01T23:20:23.631Z,62.00
2018-07-01T23:23:09.650Z,61.70
2018-07-01T23:25:40.447Z,62.30
2018-07-01T23:28:10.643Z,62.50
2018-07-01T23:30:40.805Z,62.10
2018-07-01T23:33:10.880Z,62.70
2018-07-01T23:35:42.100Z,63.50
2018-07-01T23:43:09.495Z,64.20
2018-07-01T23:45:40.312Z,63.90
2018-07-01T23:48:12.242Z,64.60
2018-07-01T23:50:52.932Z,64.60
2018-07-01T23:53:33.381Z,64.80
2018-07-01T23:56:06.652Z,65.10
2018-07-01T23:58:39.497Z,65.40
